Obidos, Brazil
Current Conditions -  °F | °C
As of 6:00 PM on Monday 22 Dec 2014 (Local Time) from SBSN Reporting Station
Clear Clear  
Wind Chill: 84°   Ceiling: Unl
Heat Index: 91°   Visibility: 6mi
Dew Point: 73°   Wind: 5mph
Humidity: 70%   Direction: 140°SE
Pressure: 29.71"   Gusts: NA
Location:  1.91°S, 55.52°W
Report Text: SBSN 222200Z 14004KT CAVOK 29/23 Q1006
Loading
Personal Weather Stations






























Interactive Weather Map New forecast layout! Learn more

10-Day Weather Forecast

Advertisements
Track Severe Weather on mobile